TimeCDT,TemperatureF,Dew PointF,Humidity,Sea Level PressureIn,VisibilityMPH,Wind Direction,Wind SpeedMPH,Gust SpeedMPH,PrecipitationIn,Events,Conditions,WindDirDegrees,DateUTC
12:15 AM,48.2,46.4,93,29.78,10.0,NNE,3.5,-,N/A,,Overcast,20,2012-10-14 05:15:00
12:35 AM,48.2,46.4,93,29.77,10.0,NNE,6.9,-,N/A,,Overcast,20,2012-10-14 05:35:00
12:55 AM,48.2,46.4,93,29.77,10.0,NNE,4.6,-,N/A,,Overcast,30,2012-10-14 05:55:00
1:15 AM,48.2,46.4,93,29.77,10.0,NE,4.6,-,N/A,,Overcast,50,2012-10-14 06:15:00
1:35 AM,-9999,-9999,N/A,29.77,7.0,NNE,4.6,-,N/A,,Overcast,20,2012-10-14 06:35:00
1:55 AM,48.2,46.4,93,29.78,7.0,NE,4.6,-,N/A,,Overcast,40,2012-10-14 06:55:00
2:35 AM,-9999,-9999,N/A,29.77,5.0,ENE,6.9,-,N/A,,Overcast,60,2012-10-14 07:35:00
2:55 AM,-9999,-9999,N/A,29.76,9.0,ENE,8.1,-,N/A,,Overcast,60,2012-10-14 07:55:00
3:15 AM,-9999,-9999,N/A,29.75,10.0,East,5.8,-,N/A,,Overcast,80,2012-10-14 08:15:00
3:35 AM,-9999,-9999,N/A,29.74,10.0,NE,8.1,-,N/A,,Overcast,50,2012-10-14 08:35:00
3:55 AM,-9999,-9999,N/A,29.74,10.0,NNE,9.2,-,N/A,,Overcast,30,2012-10-14 08:55:00
4:15 AM,-9999,-9999,N/A,29.73,10.0,NE,6.9,-,N/A,,Overcast,40,2012-10-14 09:15:00
4:35 AM,-9999,-9999,N/A,29.73,10.0,NE,9.2,-,N/A,,Overcast,40,2012-10-14 09:35:00
4:55 AM,48.2,46.4,93,29.73,10.0,NE,6.9,-,N/A,,Overcast,40,2012-10-14 09:55:00
5:15 AM,48.2,46.4,93,29.73,10.0,NE,8.1,-,N/A,,Overcast,40,2012-10-14 10:15:00
5:35 AM,48.2,46.4,93,29.72,10.0,NE,8.1,-,N/A,,Overcast,40,2012-10-14 10:35:00
5:55 AM,48.2,46.4,93,29.72,10.0,NE,8.1,-,N/A,,Overcast,50,2012-10-14 10:55:00
6:15 AM,48.2,46.4,93,29.72,10.0,ENE,11.5,-,N/A,,Overcast,70,2012-10-14 11:15:00
6:35 AM,48.2,46.4,93,29.71,10.0,ENE,16.1,21.9,N/A,,Overcast,70,2012-10-14 11:35:00
6:55 AM,-9999,-9999,N/A,29.70,10.0,ENE,12.7,-,N/A,,Overcast,60,2012-10-14 11:55:00
7:15 AM,48.2,46.4,93,29.69,10.0,ENE,15.0,-,N/A,,Overcast,60,2012-10-14 12:15:00
7:35 AM,-9999,-9999,N/A,29.68,10.0,ENE,16.1,23.0,N/A,,Overcast,60,2012-10-14 12:35:00
7:55 AM,-9999,-9999,N/A,29.67,5.0,ENE,15.0,-,0.01,,Overcast,60,2012-10-14 12:55:00
8:15 AM,-9999,-9999,N/A,29.66,3.0,NE,16.1,21.9,0.14,,Overcast,40,2012-10-14 13:15:00
8:35 AM,-9999,-9999,N/A,29.65,7.0,NNE,13.8,20.7,0.20,,Overcast,30,2012-10-14 13:35:00
8:55 AM,-9999,-9999,N/A,29.64,8.0,NE,11.5,21.9,0.23,,Overcast,40,2012-10-14 13:55:00
9:15 AM,-9999,-9999,N/A,29.64,9.0,NNE,10.4,-,0.02,,Overcast,30,2012-10-14 14:15:00
9:35 AM,-9999,-9999,N/A,29.63,9.0,NNE,12.7,18.4,0.07,,Overcast,20,2012-10-14 14:35:00
9:55 AM,-9999,-9999,N/A,29.62,10.0,NNE,12.7,19.6,0.11,,Overcast,20,2012-10-14 14:55:00
10:15 AM,-9999,-9999,N/A,29.61,10.0,NNE,12.7,18.4,0.03,,Overcast,20,2012-10-14 15:15:00
10:35 AM,-9999,-9999,N/A,29.60,10.0,NNE,12.7,21.9,0.06,,Overcast,20,2012-10-14 15:35:00
10:55 AM,-9999,-9999,N/A,29.58,10.0,NNE,15.0,21.9,0.09,,Overcast,30,2012-10-14 15:55:00
11:15 AM,-9999,-9999,N/A,29.57,10.0,NNE,15.0,20.7,0.03,,Overcast,20,2012-10-14 16:15:00
11:35 AM,-9999,-9999,N/A,29.56,10.0,NNE,12.7,19.6,0.06,,Overcast,20,2012-10-14 16:35:00
11:55 AM,-9999,-9999,N/A,29.55,10.0,NNE,11.5,18.4,0.08,,Overcast,20,2012-10-14 16:55:00
12:15 PM,-9999,-9999,N/A,29.55,10.0,NNE,11.5,18.4,0.04,,Overcast,30,2012-10-14 17:15:00
12:35 PM,-9999,-9999,N/A,29.53,10.0,North,12.7,19.6,0.08,,Overcast,10,2012-10-14 17:35:00
12:55 PM,-9999,-9999,N/A,29.51,10.0,NNE,16.1,24.2,0.10,,Overcast,20,2012-10-14 17:55:00
1:15 PM,-9999,-9999,N/A,29.49,10.0,NNE,13.8,25.3,0.01,,Overcast,20,2012-10-14 18:15:00
1:35 PM,-9999,-9999,N/A,29.49,10.0,North,11.5,19.6,0.03,,Overcast,10,2012-10-14 18:35:00
1:55 PM,-9999,-9999,N/A,29.50,10.0,North,11.5,19.6,0.03,,Overcast,360,2012-10-14 18:55:00
2:15 PM,-9999,-9999,N/A,29.49,9.0,North,13.8,19.6,0.03,,Overcast,360,2012-10-14 19:15:00
2:35 PM,-9999,-9999,N/A,29.47,5.0,North,13.8,20.7,0.10,,Overcast,360,2012-10-14 19:35:00
2:55 PM,-9999,-9999,N/A,29.48,7.0,North,12.7,19.6,0.13,,Overcast,360,2012-10-14 19:55:00
3:15 PM,-9999,-9999,N/A,29.48,9.0,North,12.7,19.6,0.02,,Overcast,350,2012-10-14 20:15:00
3:35 PM,-9999,-9999,N/A,29.48,9.0,North,10.4,-,0.03,,Overcast,350,2012-10-14 20:35:00
3:55 PM,48.2,46.4,93,29.48,10.0,NNW,13.8,18.4,0.03,,Overcast,340,2012-10-14 20:55:00
4:15 PM,-9999,-9999,N/A,29.48,10.0,North,13.8,21.9,0.01,,Overcast,350,2012-10-14 21:15:00
4:35 PM,-9999,-9999,N/A,29.49,9.0,North,16.1,23.0,0.01,,Overcast,350,2012-10-14 21:35:00
4:55 PM,-9999,-9999,N/A,29.49,10.0,North,18.4,24.2,0.02,,Overcast,350,2012-10-14 21:55:00
5:15 PM,-9999,-9999,N/A,29.50,9.0,North,16.1,24.2,0.01,,Overcast,350,2012-10-14 22:15:00
5:35 PM,-9999,-9999,N/A,29.51,10.0,North,11.5,26.5,0.02,,Overcast,350,2012-10-14 22:35:00
5:55 PM,-9999,-9999,N/A,29.52,10.0,North,15.0,20.7,0.02,,Overcast,350,2012-10-14 22:55:00
6:15 PM,-9999,-9999,N/A,29.53,9.0,North,17.3,23.0,0.01,,Overcast,350,2012-10-14 23:15:00
6:35 PM,-9999,-9999,N/A,29.55,10.0,NNW,11.5,24.2,0.02,,Overcast,340,2012-10-14 23:35:00
6:55 PM,-9999,-9999,N/A,29.56,10.0,NNW,18.4,25.3,0.03,,Overcast,340,2012-10-14 23:55:00
7:15 PM,-9999,-9999,N/A,29.57,10.0,NNW,16.1,20.7,N/A,,Overcast,340,2012-10-15 00:15:00
7:35 PM,-9999,-9999,N/A,29.58,10.0,NNW,12.7,21.9,N/A,,Overcast,340,2012-10-15 00:35:00
7:55 PM,-9999,-9999,N/A,29.59,10.0,NNW,18.4,24.2,N/A,,Overcast,340,2012-10-15 00:55:00
8:15 PM,-9999,-9999,N/A,29.60,10.0,NNW,13.8,19.6,0.01,,Overcast,340,2012-10-15 01:15:00
8:35 PM,-9999,-9999,N/A,29.61,10.0,NNW,12.7,24.2,0.01,,Mostly Cloudy,340,2012-10-15 01:35:00
8:55 PM,-9999,-9999,N/A,29.61,10.0,NNW,12.7,17.3,0.01,,Mostly Cloudy,340,2012-10-15 01:55:00
9:15 PM,-9999,-9999,N/A,29.62,10.0,NNW,10.4,18.4,N/A,,Overcast,340,2012-10-15 02:15:00
9:35 PM,-9999,-9999,N/A,29.63,10.0,NNW,15.0,21.9,N/A,,Overcast,340,2012-10-15 02:35:00
9:55 PM,-9999,-9999,N/A,29.64,10.0,NNW,11.5,17.3,N/A,,Mostly Cloudy,330,2012-10-15 02:55:00
10:15 PM,44.6,41.0,87,29.65,10.0,NNW,9.2,-,N/A,,Overcast,330,2012-10-15 03:15:00
10:35 PM,44.6,41.0,87,29.66,10.0,NNW,10.4,18.4,N/A,,Overcast,330,2012-10-15 03:35:00
10:55 PM,44.6,41.0,87,29.66,10.0,NNW,11.5,16.1,N/A,,Overcast,330,2012-10-15 03:55:00
11:15 PM,44.6,39.2,81,29.67,10.0,NNW,9.2,18.4,N/A,,Overcast,330,2012-10-15 04:15:00
11:35 PM,42.8,39.2,87,29.67,10.0,NNW,10.4,16.1,N/A,,Overcast,330,2012-10-15 04:35:00
11:55 PM,42.8,39.2,87,29.67,10.0,NNW,10.4,17.3,N/A,,Overcast,330,2012-10-15 04:55:00